sensor_id;sensor_type;location;lat;lon;timestamp;P1;durP1;ratioP1;P2;durP2;ratioP2
14732;SDS011;7457;50.960;6.830;2022-12-18T00:01:22;12.68;;;10.48;;
14732;SDS011;7457;50.960;6.830;2022-12-18T00:03:48;16.10;;;10.07;;
14732;SDS011;7457;50.960;6.830;2022-12-18T00:06:15;16.42;;;12.00;;
14732;SDS011;7457;50.960;6.830;2022-12-18T00:08:41;17.75;;;11.90;;
14732;SDS011;7457;50.960;6.830;2022-12-18T00:11:09;15.05;;;11.80;;
14732;SDS011;7457;50.960;6.830;2022-12-18T00:13:36;17.65;;;12.68;;
14732;SDS011;7457;50.960;6.830;2022-12-18T00:16:06;18.27;;;11.35;;
14732;SDS011;7457;50.960;6.830;2022-12-18T00:18:33;18.33;;;12.15;;
14732;SDS011;7457;50.960;6.830;2022-12-18T00:21:00;17.02;;;11.38;;
14732;SDS011;7457;50.960;6.830;2022-12-18T00:23:27;16.70;;;12.18;;
14732;SDS011;7457;50.960;6.830;2022-12-18T00:25:54;15.55;;;11.25;;
14732;SDS011;7457;50.960;6.830;2022-12-18T00:28:19;19.58;;;12.32;;
14732;SDS011;7457;50.960;6.830;2022-12-18T00:30:45;16.67;;;11.35;;
14732;SDS011;7457;50.960;6.830;2022-12-18T00:33:10;16.85;;;11.98;;
14732;SDS011;7457;50.960;6.830;2022-12-18T00:35:36;17.08;;;11.95;;
14732;SDS011;7457;50.960;6.830;2022-12-18T00:38:02;16.92;;;12.82;;
14732;SDS011;7457;50.960;6.830;2022-12-18T00:40:27;14.65;;;11.13;;
14732;SDS011;7457;50.960;6.830;2022-12-18T00:42:53;16.75;;;11.18;;
14732;SDS011;7457;50.960;6.830;2022-12-18T00:45:25;21.15;;;11.13;;
14732;SDS011;7457;50.960;6.830;2022-12-18T00:47:53;17.40;;;11.40;;
14732;SDS011;7457;50.960;6.830;2022-12-18T00:50:20;15.30;;;11.50;;
14732;SDS011;7457;50.960;6.830;2022-12-18T00:52:46;18.55;;;12.55;;
14732;SDS011;7457;50.960;6.830;2022-12-18T00:55:12;15.35;;;9.88;;
14732;SDS011;7457;50.960;6.830;2022-12-18T00:57:38;13.98;;;10.57;;
14732;SDS011;7457;50.960;6.830;2022-12-18T01:00:05;17.25;;;12.15;;
14732;SDS011;7457;50.960;6.830;2022-12-18T01:02:32;15.95;;;10.40;;
14732;SDS011;7457;50.960;6.830;2022-12-18T01:04:57;16.83;;;10.85;;
14732;SDS011;7457;50.960;6.830;2022-12-18T01:07:23;15.48;;;10.00;;
14732;SDS011;7457;50.960;6.830;2022-12-18T01:09:49;16.85;;;11.88;;
14732;SDS011;7457;50.960;6.830;2022-12-18T01:12:14;18.15;;;10.90;;
14732;SDS011;7457;50.960;6.830;2022-12-18T01:14:40;19.38;;;10.98;;
14732;SDS011;7457;50.960;6.830;2022-12-18T01:17:05;12.38;;;10.00;;
14732;SDS011;7457;50.960;6.830;2022-12-18T01:19:31;14.73;;;11.35;;
14732;SDS011;7457;50.960;6.830;2022-12-18T01:21:57;17.90;;;11.65;;
14732;SDS011;7457;50.960;6.830;2022-12-18T01:24:23;16.02;;;11.57;;
14732;SDS011;7457;50.960;6.830;2022-12-18T01:26:49;17.75;;;12.45;;
14732;SDS011;7457;50.960;6.830;2022-12-18T01:29:14;20.67;;;13.10;;
14732;SDS011;7457;50.960;6.830;2022-12-18T01:31:40;16.85;;;12.80;;
14732;SDS011;7457;50.960;6.830;2022-12-18T01:34:06;17.27;;;12.35;;
14732;SDS011;7457;50.960;6.830;2022-12-18T01:36:32;19.10;;;12.25;;
14732;SDS011;7457;50.960;6.830;2022-12-18T01:39:00;15.68;;;10.90;;
14732;SDS011;7457;50.960;6.830;2022-12-18T01:41:30;16.77;;;11.00;;
14732;SDS011;7457;50.960;6.830;2022-12-18T01:47:20;15.00;;;9.68;;
14732;SDS011;7457;50.960;6.830;2022-12-18T01:49:49;17.05;;;10.40;;
14732;SDS011;7457;50.960;6.830;2022-12-18T01:52:15;15.75;;;10.93;;
14732;SDS011;7457;50.960;6.830;2022-12-18T01:54:42;17.52;;;11.50;;
14732;SDS011;7457;50.960;6.830;2022-12-18T01:57:09;16.92;;;12.65;;
14732;SDS011;7457;50.960;6.830;2022-12-18T01:59:35;20.35;;;12.60;;
14732;SDS011;7457;50.960;6.830;2022-12-18T02:02:02;17.20;;;11.63;;
14732;SDS011;7457;50.960;6.830;2022-12-18T02:04:28;17.50;;;11.32;;
14732;SDS011;7457;50.960;6.830;2022-12-18T02:07:03;19.52;;;11.75;;
14732;SDS011;7457;50.960;6.830;2022-12-18T02:13:03;15.00;;;11.18;;
14732;SDS011;7457;50.960;6.830;2022-12-18T02:16:01;20.27;;;12.05;;
14732;SDS011;7457;50.960;6.830;2022-12-18T02:18:39;15.80;;;12.25;;
14732;SDS011;7457;50.960;6.830;2022-12-18T02:26:57;16.23;;;11.43;;
14732;SDS011;7457;50.960;6.830;2022-12-18T02:29:26;14.30;;;11.02;;
14732;SDS011;7457;50.960;6.830;2022-12-18T02:32:14;15.32;;;11.07;;
14732;SDS011;7457;50.960;6.830;2022-12-18T02:34:42;14.90;;;10.20;;
14732;SDS011;7457;50.960;6.830;2022-12-18T02:37:10;17.80;;;11.10;;
14732;SDS011;7457;50.960;6.830;2022-12-18T02:39:40;16.42;;;12.20;;
14732;SDS011;7457;50.960;6.830;2022-12-18T02:42:08;18.65;;;11.48;;
14732;SDS011;7457;50.960;6.830;2022-12-18T02:44:41;16.58;;;11.73;;
14732;SDS011;7457;50.960;6.830;2022-12-18T02:47:10;17.02;;;12.63;;
14732;SDS011;7457;50.960;6.830;2022-12-18T02:52:26;17.35;;;12.13;;
14732;SDS011;7457;50.960;6.830;2022-12-18T02:55:00;17.30;;;12.15;;
14732;SDS011;7457;50.960;6.830;2022-12-18T03:03:01;16.95;;;12.35;;
14732;SDS011;7457;50.960;6.830;2022-12-18T03:11:30;16.60;;;12.05;;
14732;SDS011;7457;50.960;6.830;2022-12-18T03:13:44;16.60;;;11.80;;
14732;SDS011;7457;50.960;6.830;2022-12-18T03:16:15;17.45;;;11.95;;
14732;SDS011;7457;50.960;6.830;2022-12-18T03:18:49;20.25;;;12.85;;
14732;SDS011;7457;50.960;6.830;2022-12-18T03:21:19;16.85;;;11.50;;
14732;SDS011;7457;50.960;6.830;2022-12-18T03:23:49;17.88;;;11.25;;
14732;SDS011;7457;50.960;6.830;2022-12-18T03:26:18;15.88;;;11.18;;
14732;SDS011;7457;50.960;6.830;2022-12-18T03:28:53;17.77;;;12.60;;
14732;SDS011;7457;50.960;6.830;2022-12-18T03:31:24;16.23;;;12.10;;
14732;SDS011;7457;50.960;6.830;2022-12-18T03:33:54;17.48;;;12.05;;
14732;SDS011;7457;50.960;6.830;2022-12-18T03:36:25;16.02;;;11.68;;
14732;SDS011;7457;50.960;6.830;2022-12-18T03:38:51;15.82;;;11.80;;
14732;SDS011;7457;50.960;6.830;2022-12-18T03:55:35;17.33;;;13.60;;
14732;SDS011;7457;50.960;6.830;2022-12-18T03:58:01;18.05;;;12.68;;
14732;SDS011;7457;50.960;6.830;2022-12-18T04:00:29;13.52;;;10.68;;
14732;SDS011;7457;50.960;6.830;2022-12-18T04:02:56;14.20;;;10.15;;
14732;SDS011;7457;50.960;6.830;2022-12-18T04:05:25;14.02;;;11.05;;
14732;SDS011;7457;50.960;6.830;2022-12-18T04:07:56;14.35;;;10.70;;
14732;SDS011;7457;50.960;6.830;2022-12-18T04:10:22;14.18;;;10.35;;
14732;SDS011;7457;50.960;6.830;2022-12-18T04:12:48;16.35;;;11.38;;
14732;SDS011;7457;50.960;6.830;2022-12-18T04:15:13;16.20;;;10.98;;
14732;SDS011;7457;50.960;6.830;2022-12-18T04:17:42;15.07;;;10.95;;
14732;SDS011;7457;50.960;6.830;2022-12-18T04:20:14;15.43;;;11.57;;
14732;SDS011;7457;50.960;6.830;2022-12-18T04:22:40;17.88;;;14.30;;
14732;SDS011;7457;50.960;6.830;2022-12-18T04:25:06;16.08;;;11.98;;
14732;SDS011;7457;50.960;6.830;2022-12-18T04:27:32;16.10;;;11.93;;
14732;SDS011;7457;50.960;6.830;2022-12-18T04:29:57;14.88;;;11.15;;
14732;SDS011;7457;50.960;6.830;2022-12-18T04:32:23;15.82;;;11.52;;
14732;SDS011;7457;50.960;6.830;2022-12-18T04:34:49;18.15;;;11.95;;
14732;SDS011;7457;50.960;6.830;2022-12-18T04:37:14;15.05;;;10.80;;
14732;SDS011;7457;50.960;6.830;2022-12-18T04:39:40;15.23;;;11.15;;
14732;SDS011;7457;50.960;6.830;2022-12-18T04:42:05;16.25;;;12.00;;
14732;SDS011;7457;50.960;6.830;2022-12-18T04:44:31;20.15;;;15.65;;
14732;SDS011;7457;50.960;6.830;2022-12-18T04:46:57;16.08;;;11.73;;
14732;SDS011;7457;50.960;6.830;2022-12-18T04:49:22;16.52;;;12.10;;
14732;SDS011;7457;50.960;6.830;2022-12-18T04:51:48;14.45;;;11.57;;
14732;SDS011;7457;50.960;6.830;2022-12-18T04:54:22;19.20;;;12.68;;
14732;SDS011;7457;50.960;6.830;2022-12-18T04:56:48;18.95;;;11.80;;
14732;SDS011;7457;50.960;6.830;2022-12-18T04:59:13;16.13;;;10.82;;
14732;SDS011;7457;50.960;6.830;2022-12-18T05:01:39;16.05;;;11.77;;
14732;SDS011;7457;50.960;6.830;2022-12-18T05:04:05;19.17;;;12.32;;
14732;SDS011;7457;50.960;6.830;2022-12-18T05:06:30;16.67;;;12.07;;
14732;SDS011;7457;50.960;6.830;2022-12-18T05:08:56;16.60;;;11.05;;
14732;SDS011;7457;50.960;6.830;2022-12-18T05:11:22;17.80;;;12.27;;
14732;SDS011;7457;50.960;6.830;2022-12-18T05:13:47;21.65;;;16.55;;
14732;SDS011;7457;50.960;6.830;2022-12-18T05:16:13;16.25;;;12.23;;
14732;SDS011;7457;50.960;6.830;2022-12-18T05:18:40;18.80;;;13.57;;
14732;SDS011;7457;50.960;6.830;2022-12-18T05:21:05;18.13;;;12.50;;
14732;SDS011;7457;50.960;6.830;2022-12-18T05:23:34;13.30;;;9.50;;
14732;SDS011;7457;50.960;6.830;2022-12-18T05:26:00;18.73;;;13.07;;
14732;SDS011;7457;50.960;6.830;2022-12-18T05:28:28;19.83;;;13.70;;
14732;SDS011;7457;50.960;6.830;2022-12-18T05:30:56;17.35;;;12.60;;
14732;SDS011;7457;50.960;6.830;2022-12-18T05:33:24;16.58;;;12.32;;
14732;SDS011;7457;50.960;6.830;2022-12-18T05:35:54;16.65;;;12.38;;
14732;SDS011;7457;50.960;6.830;2022-12-18T05:38:22;19.38;;;14.27;;
14732;SDS011;7457;50.960;6.830;2022-12-18T05:40:49;18.95;;;13.23;;
14732;SDS011;7457;50.960;6.830;2022-12-18T05:43:16;14.35;;;12.30;;
14732;SDS011;7457;50.960;6.830;2022-12-18T05:45:42;21.15;;;12.90;;
14732;SDS011;7457;50.960;6.830;2022-12-18T05:48:08;17.60;;;12.88;;
14732;SDS011;7457;50.960;6.830;2022-12-18T05:50:37;17.48;;;14.38;;
14732;SDS011;7457;50.960;6.830;2022-12-18T05:53:05;19.95;;;13.20;;
14732;SDS011;7457;50.960;6.830;2022-12-18T05:55:34;19.95;;;13.55;;
14732;SDS011;7457;50.960;6.830;2022-12-18T05:58:01;17.40;;;11.60;;
14732;SDS011;7457;50.960;6.830;2022-12-18T06:00:27;24.65;;;14.75;;
14732;SDS011;7457;50.960;6.830;2022-12-18T06:02:53;18.73;;;15.43;;
14732;SDS011;7457;50.960;6.830;2022-12-18T06:05:19;19.30;;;13.38;;
14732;SDS011;7457;50.960;6.830;2022-12-18T06:07:45;20.30;;;14.35;;
14732;SDS011;7457;50.960;6.830;2022-12-18T06:10:10;21.35;;;14.20;;
14732;SDS011;7457;50.960;6.830;2022-12-18T06:12:36;19.05;;;12.10;;
14732;SDS011;7457;50.960;6.830;2022-12-18T06:15:02;19.73;;;13.60;;
14732;SDS011;7457;50.960;6.830;2022-12-18T06:17:29;18.10;;;14.50;;
14732;SDS011;7457;50.960;6.830;2022-12-18T06:19:55;17.95;;;13.57;;
14732;SDS011;7457;50.960;6.830;2022-12-18T06:22:21;20.63;;;13.50;;
14732;SDS011;7457;50.960;6.830;2022-12-18T06:24:47;19.58;;;13.55;;
14732;SDS011;7457;50.960;6.830;2022-12-18T06:27:13;15.32;;;10.65;;
14732;SDS011;7457;50.960;6.830;2022-12-18T06:29:39;14.43;;;11.27;;
14732;SDS011;7457;50.960;6.830;2022-12-18T06:32:04;17.15;;;12.95;;
14732;SDS011;7457;50.960;6.830;2022-12-18T06:34:30;14.57;;;12.05;;
14732;SDS011;7457;50.960;6.830;2022-12-18T06:36:56;18.83;;;12.75;;
14732;SDS011;7457;50.960;6.830;2022-12-18T06:39:21;17.05;;;11.00;;
14732;SDS011;7457;50.960;6.830;2022-12-18T06:41:47;17.52;;;12.07;;
14732;SDS011;7457;50.960;6.830;2022-12-18T06:44:12;16.60;;;12.25;;
14732;SDS011;7457;50.960;6.830;2022-12-18T06:46:38;17.58;;;11.95;;
14732;SDS011;7457;50.960;6.830;2022-12-18T06:49:03;13.55;;;10.20;;
14732;SDS011;7457;50.960;6.830;2022-12-18T06:51:29;15.80;;;12.32;;
14732;SDS011;7457;50.960;6.830;2022-12-18T06:53:55;20.50;;;14.43;;
14732;SDS011;7457;50.960;6.830;2022-12-18T06:56:20;19.15;;;13.40;;
14732;SDS011;7457;50.960;6.830;2022-12-18T06:58:46;21.38;;;13.65;;
14732;SDS011;7457;50.960;6.830;2022-12-18T07:01:12;20.50;;;13.90;;
14732;SDS011;7457;50.960;6.830;2022-12-18T07:03:39;16.10;;;11.65;;
14732;SDS011;7457;50.960;6.830;2022-12-18T07:06:06;18.33;;;11.52;;
14732;SDS011;7457;50.960;6.830;2022-12-18T07:08:37;18.15;;;11.75;;
14732;SDS011;7457;50.960;6.830;2022-12-18T07:11:03;16.17;;;10.32;;
14732;SDS011;7457;50.960;6.830;2022-12-18T07:13:30;18.17;;;12.75;;
14732;SDS011;7457;50.960;6.830;2022-12-18T07:16:02;18.45;;;13.65;;
14732;SDS011;7457;50.960;6.830;2022-12-18T07:18:32;14.52;;;11.02;;
14732;SDS011;7457;50.960;6.830;2022-12-18T07:20:57;17.17;;;12.77;;
14732;SDS011;7457;50.960;6.830;2022-12-18T07:23:23;21.48;;;14.77;;
14732;SDS011;7457;50.960;6.830;2022-12-18T07:25:48;16.92;;;11.57;;
14732;SDS011;7457;50.960;6.830;2022-12-18T07:28:14;20.75;;;13.30;;
14732;SDS011;7457;50.960;6.830;2022-12-18T07:30:39;20.52;;;12.05;;
14732;SDS011;7457;50.960;6.830;2022-12-18T07:33:05;18.50;;;12.38;;
14732;SDS011;7457;50.960;6.830;2022-12-18T07:35:32;18.05;;;13.02;;
14732;SDS011;7457;50.960;6.830;2022-12-18T07:38:01;19.00;;;14.68;;
14732;SDS011;7457;50.960;6.830;2022-12-18T07:40:26;18.08;;;13.00;;
14732;SDS011;7457;50.960;6.830;2022-12-18T07:42:52;20.33;;;12.77;;
14732;SDS011;7457;50.960;6.830;2022-12-18T07:45:17;21.77;;;15.32;;
14732;SDS011;7457;50.960;6.830;2022-12-18T07:47:43;19.38;;;13.10;;
14732;SDS011;7457;50.960;6.830;2022-12-18T07:50:09;16.45;;;12.07;;
14732;SDS011;7457;50.960;6.830;2022-12-18T07:52:35;17.27;;;11.35;;
14732;SDS011;7457;50.960;6.830;2022-12-18T07:55:01;14.70;;;10.43;;
14732;SDS011;7457;50.960;6.830;2022-12-18T07:57:27;13.88;;;10.20;;
14732;SDS011;7457;50.960;6.830;2022-12-18T07:59:53;20.10;;;16.58;;
14732;SDS011;7457;50.960;6.830;2022-12-18T08:02:18;16.13;;;12.25;;
14732;SDS011;7457;50.960;6.830;2022-12-18T08:04:44;19.77;;;13.95;;
14732;SDS011;7457;50.960;6.830;2022-12-18T08:07:09;23.00;;;12.82;;
14732;SDS011;7457;50.960;6.830;2022-12-18T08:09:35;16.75;;;13.90;;
14732;SDS011;7457;50.960;6.830;2022-12-18T08:12:00;12.13;;;9.55;;
14732;SDS011;7457;50.960;6.830;2022-12-18T08:14:26;16.38;;;12.23;;
14732;SDS011;7457;50.960;6.830;2022-12-18T08:16:52;19.27;;;12.63;;
14732;SDS011;7457;50.960;6.830;2022-12-18T08:19:17;15.85;;;11.40;;
14732;SDS011;7457;50.960;6.830;2022-12-18T08:21:43;14.65;;;11.27;;
14732;SDS011;7457;50.960;6.830;2022-12-18T08:24:08;15.02;;;10.48;;
14732;SDS011;7457;50.960;6.830;2022-12-18T08:26:35;19.23;;;11.75;;
14732;SDS011;7457;50.960;6.830;2022-12-18T08:29:01;18.65;;;12.43;;
14732;SDS011;7457;50.960;6.830;2022-12-18T08:31:27;17.45;;;12.32;;
14732;SDS011;7457;50.960;6.830;2022-12-18T08:33:54;18.38;;;12.48;;
14732;SDS011;7457;50.960;6.830;2022-12-18T08:36:20;14.30;;;11.10;;
14732;SDS011;7457;50.960;6.830;2022-12-18T08:38:49;17.95;;;12.18;;
14732;SDS011;7457;50.960;6.830;2022-12-18T08:41:15;19.52;;;13.20;;
14732;SDS011;7457;50.960;6.830;2022-12-18T08:43:42;15.73;;;10.77;;
14732;SDS011;7457;50.960;6.830;2022-12-18T08:46:27;17.60;;;11.98;;
14732;SDS011;7457;50.960;6.830;2022-12-18T08:48:59;15.40;;;12.05;;
14732;SDS011;7457;50.960;6.830;2022-12-18T08:51:24;17.20;;;12.82;;
14732;SDS011;7457;50.960;6.830;2022-12-18T08:53:50;20.75;;;16.85;;
14732;SDS011;7457;50.960;6.830;2022-12-18T08:56:16;17.60;;;11.77;;
14732;SDS011;7457;50.960;6.830;2022-12-18T08:58:41;18.20;;;12.25;;
14732;SDS011;7457;50.960;6.830;2022-12-18T09:01:09;16.38;;;11.52;;
14732;SDS011;7457;50.960;6.830;2022-12-18T09:03:35;16.85;;;12.95;;
14732;SDS011;7457;50.960;6.830;2022-12-18T09:06:01;17.85;;;12.85;;
14732;SDS011;7457;50.960;6.830;2022-12-18T09:08:27;19.02;;;12.13;;
14732;SDS011;7457;50.960;6.830;2022-12-18T09:10:53;17.88;;;14.38;;
14732;SDS011;7457;50.960;6.830;2022-12-18T09:13:23;17.30;;;12.43;;
14732;SDS011;7457;50.960;6.830;2022-12-18T09:15:50;14.23;;;10.75;;
14732;SDS011;7457;50.960;6.830;2022-12-18T09:18:17;17.27;;;11.75;;
14732;SDS011;7457;50.960;6.830;2022-12-18T09:20:44;17.70;;;11.98;;
14732;SDS011;7457;50.960;6.830;2022-12-18T09:23:10;14.98;;;11.50;;
14732;SDS011;7457;50.960;6.830;2022-12-18T09:25:36;16.33;;;12.10;;
14732;SDS011;7457;50.960;6.830;2022-12-18T09:28:12;18.90;;;12.90;;
14732;SDS011;7457;50.960;6.830;2022-12-18T09:30:39;17.45;;;12.43;;
14732;SDS011;7457;50.960;6.830;2022-12-18T09:33:09;18.15;;;13.13;;
14732;SDS011;7457;50.960;6.830;2022-12-18T09:35:37;16.70;;;11.95;;
14732;SDS011;7457;50.960;6.830;2022-12-18T09:38:04;16.02;;;11.95;;
14732;SDS011;7457;50.960;6.830;2022-12-18T09:40:32;15.45;;;12.20;;
14732;SDS011;7457;50.960;6.830;2022-12-18T09:43:03;17.25;;;12.75;;
14732;SDS011;7457;50.960;6.830;2022-12-18T09:45:39;17.77;;;14.30;;
14732;SDS011;7457;50.960;6.830;2022-12-18T09:48:32;19.80;;;14.25;;
14732;SDS011;7457;50.960;6.830;2022-12-18T09:50:58;14.85;;;10.30;;
14732;SDS011;7457;50.960;6.830;2022-12-18T09:53:30;16.17;;;12.57;;
14732;SDS011;7457;50.960;6.830;2022-12-18T09:56:00;17.33;;;11.70;;
14732;SDS011;7457;50.960;6.830;2022-12-18T10:01:18;12.52;;;8.50;;
14732;SDS011;7457;50.960;6.830;2022-12-18T10:03:48;16.55;;;13.13;;
14732;SDS011;7457;50.960;6.830;2022-12-18T10:06:18;17.60;;;13.82;;
14732;SDS011;7457;50.960;6.830;2022-12-18T10:08:46;15.18;;;11.75;;
14732;SDS011;7457;50.960;6.830;2022-12-18T10:16:47;16.58;;;13.95;;
14732;SDS011;7457;50.960;6.830;2022-12-18T10:22:25;18.42;;;12.77;;
14732;SDS011;7457;50.960;6.830;2022-12-18T10:25:25;19.92;;;10.00;;
14732;SDS011;7457;50.960;6.830;2022-12-18T10:27:53;17.65;;;11.63;;
14732;SDS011;7457;50.960;6.830;2022-12-18T10:30:23;14.35;;;9.80;;
14732;SDS011;7457;50.960;6.830;2022-12-18T10:32:50;18.77;;;15.23;;
14732;SDS011;7457;50.960;6.830;2022-12-18T10:35:20;21.98;;;16.40;;
14732;SDS011;7457;50.960;6.830;2022-12-18T10:41:23;14.65;;;9.32;;
14732;SDS011;7457;50.960;6.830;2022-12-18T10:44:10;19.58;;;12.93;;
14732;SDS011;7457;50.960;6.830;2022-12-18T10:46:37;14.88;;;10.32;;
14732;SDS011;7457;50.960;6.830;2022-12-18T10:49:03;16.23;;;13.52;;
14732;SDS011;7457;50.960;6.830;2022-12-18T10:51:30;15.65;;;10.63;;
14732;SDS011;7457;50.960;6.830;2022-12-18T10:54:12;16.17;;;13.13;;
14732;SDS011;7457;50.960;6.830;2022-12-18T10:56:41;17.10;;;11.00;;
14732;SDS011;7457;50.960;6.830;2022-12-18T10:59:09;17.38;;;12.45;;
14732;SDS011;7457;50.960;6.830;2022-12-18T11:01:55;16.85;;;12.30;;
14732;SDS011;7457;50.960;6.830;2022-12-18T11:04:31;15.15;;;11.07;;
14732;SDS011;7457;50.960;6.830;2022-12-18T11:06:58;14.18;;;11.40;;
14732;SDS011;7457;50.960;6.830;2022-12-18T11:09:30;18.80;;;13.48;;
14732;SDS011;7457;50.960;6.830;2022-12-18T11:12:04;14.75;;;10.50;;
14732;SDS011;7457;50.960;6.830;2022-12-18T11:14:52;17.13;;;13.82;;
14732;SDS011;7457;50.960;6.830;2022-12-18T11:19:58;18.85;;;14.52;;
14732;SDS011;7457;50.960;6.830;2022-12-18T11:22:32;18.67;;;13.75;;
14732;SDS011;7457;50.960;6.830;2022-12-18T11:27:40;14.27;;;9.88;;
14732;SDS011;7457;50.960;6.830;2022-12-18T11:30:22;15.70;;;13.00;;
14732;SDS011;7457;50.960;6.830;2022-12-18T11:35:32;15.50;;;11.05;;
14732;SDS011;7457;50.960;6.830;2022-12-18T11:38:29;16.08;;;11.55;;
14732;SDS011;7457;50.960;6.830;2022-12-18T11:44:18;13.38;;;9.98;;
14732;SDS011;7457;50.960;6.830;2022-12-18T11:46:51;16.90;;;12.65;;
14732;SDS011;7457;50.960;6.830;2022-12-18T11:49:40;15.48;;;10.52;;
14732;SDS011;7457;50.960;6.830;2022-12-18T11:54:34;17.15;;;12.20;;
14732;SDS011;7457;50.960;6.830;2022-12-18T11:57:45;15.80;;;11.52;;
14732;SDS011;7457;50.960;6.830;2022-12-18T12:00:14;18.83;;;16.42;;
14732;SDS011;7457;50.960;6.830;2022-12-18T12:05:50;15.25;;;11.93;;
14732;SDS011;7457;50.960;6.830;2022-12-18T12:13:58;19.05;;;13.02;;
14732;SDS011;7457;50.960;6.830;2022-12-18T12:16:29;18.27;;;10.90;;
14732;SDS011;7457;50.960;6.830;2022-12-18T12:19:26;18.48;;;14.75;;
14732;SDS011;7457;50.960;6.830;2022-12-18T12:24:48;18.38;;;12.00;;
14732;SDS011;7457;50.960;6.830;2022-12-18T12:38:54;23.05;;;16.05;;
14732;SDS011;7457;50.960;6.830;2022-12-18T12:41:17;19.95;;;14.05;;
14732;SDS011;7457;50.960;6.830;2022-12-18T12:44:06;20.38;;;16.35;;
14732;SDS011;7457;50.960;6.830;2022-12-18T12:46:39;18.60;;;14.40;;
14732;SDS011;7457;50.960;6.830;2022-12-18T12:49:11;23.10;;;15.25;;
14732;SDS011;7457;50.960;6.830;2022-12-18T12:51:43;21.05;;;14.93;;
14732;SDS011;7457;50.960;6.830;2022-12-18T12:54:16;15.88;;;11.40;;
14732;SDS011;7457;50.960;6.830;2022-12-18T12:56:46;19.88;;;12.63;;
14732;SDS011;7457;50.960;6.830;2022-12-18T12:59:19;20.05;;;14.70;;
14732;SDS011;7457;50.960;6.830;2022-12-18T13:04:42;19.85;;;13.40;;
14732;SDS011;7457;50.960;6.830;2022-12-18T13:07:15;20.05;;;11.70;;
14732;SDS011;7457;50.960;6.830;2022-12-18T13:25:49;19.27;;;13.73;;
14732;SDS011;7457;50.960;6.830;2022-12-18T13:28:23;20.60;;;13.00;;
14732;SDS011;7457;50.960;6.830;2022-12-18T13:31:01;20.30;;;14.98;;
14732;SDS011;7457;50.960;6.830;2022-12-18T13:38:38;23.42;;;17.02;;
14732;SDS011;7457;50.960;6.830;2022-12-18T13:43:34;17.42;;;11.82;;
14732;SDS011;7457;50.960;6.830;2022-12-18T13:51:39;19.05;;;13.05;;
14732;SDS011;7457;50.960;6.830;2022-12-18T13:56:52;23.35;;;15.70;;
14732;SDS011;7457;50.960;6.830;2022-12-18T14:02:00;22.60;;;14.07;;
14732;SDS011;7457;50.960;6.830;2022-12-18T14:04:38;21.88;;;14.20;;
14732;SDS011;7457;50.960;6.830;2022-12-18T14:07:07;20.88;;;16.55;;
14732;SDS011;7457;50.960;6.830;2022-12-18T14:09:40;23.15;;;16.27;;
14732;SDS011;7457;50.960;6.830;2022-12-18T14:20:43;18.88;;;13.50;;
14732;SDS011;7457;50.960;6.830;2022-12-18T14:25:52;21.00;;;14.65;;
14732;SDS011;7457;50.960;6.830;2022-12-18T14:28:18;22.58;;;14.57;;
14732;SDS011;7457;50.960;6.830;2022-12-18T14:30:44;23.17;;;17.00;;
14732;SDS011;7457;50.960;6.830;2022-12-18T14:35:39;17.38;;;11.27;;
14732;SDS011;7457;50.960;6.830;2022-12-18T14:38:34;19.65;;;14.88;;
14732;SDS011;7457;50.960;6.830;2022-12-18T14:41:05;21.85;;;15.60;;
14732;SDS011;7457;50.960;6.830;2022-12-18T14:43:41;23.13;;;14.73;;
14732;SDS011;7457;50.960;6.830;2022-12-18T14:48:54;22.67;;;13.77;;
14732;SDS011;7457;50.960;6.830;2022-12-18T14:51:30;24.95;;;14.80;;
14732;SDS011;7457;50.960;6.830;2022-12-18T14:59:05;22.77;;;15.70;;
14732;SDS011;7457;50.960;6.830;2022-12-18T15:01:39;24.85;;;14.40;;
14732;SDS011;7457;50.960;6.830;2022-12-18T15:04:26;24.65;;;17.13;;
14732;SDS011;7457;50.960;6.830;2022-12-18T15:07:11;22.30;;;17.10;;
14732;SDS011;7457;50.960;6.830;2022-12-18T15:10:10;23.45;;;16.77;;
14732;SDS011;7457;50.960;6.830;2022-12-18T15:12:45;20.38;;;14.15;;
14732;SDS011;7457;50.960;6.830;2022-12-18T15:20:40;25.08;;;20.33;;
14732;SDS011;7457;50.960;6.830;2022-12-18T15:26:09;25.70;;;17.83;;
14732;SDS011;7457;50.960;6.830;2022-12-18T15:33:40;25.48;;;16.15;;
14732;SDS011;7457;50.960;6.830;2022-12-18T15:36:11;31.48;;;13.70;;
14732;SDS011;7457;50.960;6.830;2022-12-18T15:38:39;20.52;;;15.40;;
14732;SDS011;7457;50.960;6.830;2022-12-18T15:41:13;22.73;;;16.02;;
14732;SDS011;7457;50.960;6.830;2022-12-18T15:43:40;24.98;;;18.00;;
14732;SDS011;7457;50.960;6.830;2022-12-18T15:46:07;25.60;;;18.33;;
14732;SDS011;7457;50.960;6.830;2022-12-18T15:48:46;24.13;;;16.60;;
14732;SDS011;7457;50.960;6.830;2022-12-18T15:51:15;25.45;;;19.30;;
14732;SDS011;7457;50.960;6.830;2022-12-18T15:53:44;19.00;;;13.30;;
14732;SDS011;7457;50.960;6.830;2022-12-18T15:56:12;23.90;;;18.48;;
14732;SDS011;7457;50.960;6.830;2022-12-18T15:58:57;27.08;;;16.02;;
14732;SDS011;7457;50.960;6.830;2022-12-18T16:01:24;24.48;;;18.20;;
14732;SDS011;7457;50.960;6.830;2022-12-18T16:03:51;22.02;;;17.27;;
14732;SDS011;7457;50.960;6.830;2022-12-18T16:06:18;26.17;;;20.92;;
14732;SDS011;7457;50.960;6.830;2022-12-18T16:08:43;20.83;;;14.80;;
14732;SDS011;7457;50.960;6.830;2022-12-18T16:11:28;24.13;;;17.70;;
14732;SDS011;7457;50.960;6.830;2022-12-18T16:14:21;24.58;;;16.40;;
14732;SDS011;7457;50.960;6.830;2022-12-18T16:16:53;26.13;;;17.83;;
14732;SDS011;7457;50.960;6.830;2022-12-18T16:19:20;24.42;;;16.45;;
14732;SDS011;7457;50.960;6.830;2022-12-18T16:21:46;28.88;;;21.85;;
14732;SDS011;7457;50.960;6.830;2022-12-18T16:24:22;27.15;;;20.60;;
14732;SDS011;7457;50.960;6.830;2022-12-18T16:26:50;23.92;;;18.17;;
14732;SDS011;7457;50.960;6.830;2022-12-18T16:29:17;23.42;;;15.57;;
14732;SDS011;7457;50.960;6.830;2022-12-18T16:31:43;22.00;;;16.08;;
14732;SDS011;7457;50.960;6.830;2022-12-18T16:36:56;26.05;;;17.80;;
14732;SDS011;7457;50.960;6.830;2022-12-18T16:39:24;23.40;;;16.75;;
14732;SDS011;7457;50.960;6.830;2022-12-18T16:41:50;27.70;;;20.75;;
14732;SDS011;7457;50.960;6.830;2022-12-18T16:44:16;22.25;;;18.40;;
14732;SDS011;7457;50.960;6.830;2022-12-18T16:46:41;25.90;;;19.38;;
14732;SDS011;7457;50.960;6.830;2022-12-18T16:49:10;25.88;;;16.85;;
14732;SDS011;7457;50.960;6.830;2022-12-18T16:51:36;24.05;;;18.15;;
14732;SDS011;7457;50.960;6.830;2022-12-18T16:54:02;24.52;;;18.65;;
14732;SDS011;7457;50.960;6.830;2022-12-18T16:56:28;27.25;;;22.70;;
14732;SDS011;7457;50.960;6.830;2022-12-18T16:58:55;24.48;;;17.70;;
14732;SDS011;7457;50.960;6.830;2022-12-18T17:01:21;28.05;;;22.30;;
14732;SDS011;7457;50.960;6.830;2022-12-18T17:03:55;27.52;;;17.90;;
14732;SDS011;7457;50.960;6.830;2022-12-18T17:06:23;23.23;;;13.70;;
14732;SDS011;7457;50.960;6.830;2022-12-18T17:09:03;28.17;;;18.63;;
14732;SDS011;7457;50.960;6.830;2022-12-18T17:11:31;27.08;;;21.23;;
14732;SDS011;7457;50.960;6.830;2022-12-18T17:13:58;29.83;;;23.77;;
14732;SDS011;7457;50.960;6.830;2022-12-18T17:16:29;29.70;;;22.58;;
14732;SDS011;7457;50.960;6.830;2022-12-18T17:18:55;23.60;;;16.00;;
14732;SDS011;7457;50.960;6.830;2022-12-18T17:21:20;25.60;;;18.30;;
14732;SDS011;7457;50.960;6.830;2022-12-18T17:23:46;24.67;;;18.30;;
14732;SDS011;7457;50.960;6.830;2022-12-18T17:26:12;25.13;;;17.00;;
14732;SDS011;7457;50.960;6.830;2022-12-18T17:28:38;26.75;;;21.25;;
14732;SDS011;7457;50.960;6.830;2022-12-18T17:31:11;25.70;;;15.27;;
14732;SDS011;7457;50.960;6.830;2022-12-18T17:33:41;27.17;;;21.15;;
14732;SDS011;7457;50.960;6.830;2022-12-18T17:36:07;29.70;;;22.88;;